UVA9801 KEWR-LLBG
Flight info
| Callsign | UVA9801 |
|---|---|
| Flight time | N/A |
| Altitude | 35000 |
| Route | MERIT DCT HFD DCT PUT DCT TUSKY DCT YHZ Q846 NOTOP DCT JOOPY/M085F370 DCT 49N050W 51N040W 53N030W 54N020W DCT DOGAL DCT BEXET/N0482F370 DCT MORAG DCT NUCHU/N0488F390 L607 BIG UL9 KONAN DCT KOK DCT PITES DCT EDISA DCT KUNOD DCT GEDSO DCT VEKEN DCT NEMEK DCT NAVSU DCT SOLGU DCT RUDAR DCT OSLUD DCT MEDUX UM867 KOGAT DCT ERANA DCT TSL UN130 MES UL609 ALKIS L609 ZUKKO |
| Aircraft | A35K/H-SDE2E3GHIJ3J4J5LM1ORWXY/LB1D1 |
Departure
| Time | 2026-05-04 11:01 |
|---|---|
| Airport | Newark Liberty International Airport (KEWR) |
Arrival
| Time | N/A |
|---|---|
| Airport | Ben Gurion International Airport (LLBG) |
| Time | Latitude | Longitude | Altitude | Speed | Heading |
|---|---|---|---|---|---|
| 2026-05-04 10:44 | 40.69287 | -74.17409 | 22 ft | 0 kts | 229° |
| 2026-05-04 10:50 | 40.69288 | -74.17407 | 22 ft | 3 kts | 225° |
| 2026-05-04 10:51 | 40.69305 | -74.17350 | 26 ft | 1 kts | 298° |
| 2026-05-04 10:52 | 40.69301 | -74.17340 | 26 ft | 2 kts | 298° |
| 2026-05-04 10:52 | 40.69296 | -74.17326 | 27 ft | 0 kts | 300° |
| 2026-05-04 10:52 | 40.69287 | -74.17308 | 26 ft | 3 kts | 321° |
| 2026-05-04 10:54 | 40.69268 | -74.17290 | 26 ft | 0 kts | 26° |
| 2026-05-04 10:54 | 40.69270 | -74.17288 | 26 ft | 0 kts | 29° |
| 2026-05-04 10:56 | 40.69235 | -74.17133 | 26 ft | 5 kts | 117° |
| 2026-05-04 10:56 | 40.69218 | -74.17079 | 30 ft | 7 kts | 101° |
| 2026-05-04 10:56 | 40.69238 | -74.17025 | 27 ft | 7 kts | 46° |
| 2026-05-04 10:57 | 40.69290 | -74.16992 | 28 ft | 9 kts | 24° |
| 2026-05-04 10:57 | 40.69352 | -74.16954 | 27 ft | 10 kts | 25° |
| 2026-05-04 10:57 | 40.69416 | -74.16914 | 28 ft | 11 kts | 25° |
| 2026-05-04 10:57 | 40.69491 | -74.16865 | 27 ft | 14 kts | 27° |
| 2026-05-04 10:58 | 40.69585 | -74.16802 | 32 ft | 16 kts | 27° |
| 2026-05-04 10:58 | 40.69693 | -74.16734 | 26 ft | 16 kts | 25° |
| 2026-05-04 10:58 | 40.69808 | -74.16664 | 21 ft | 19 kts | 27° |
| 2026-05-04 10:58 | 40.69842 | -74.16641 | 26 ft | 1 kts | 26° |
| 2026-05-04 10:59 | 40.69855 | -74.16633 | 24 ft | 3 kts | 26° |
| 2026-05-04 10:59 | 40.69884 | -74.16614 | 25 ft | 7 kts | 26° |
| 2026-05-04 10:59 | 40.69945 | -74.16574 | 24 ft | 13 kts | 27° |
| 2026-05-04 10:59 | 40.69981 | -74.16467 | 19 ft | 14 kts | 90° |
| 2026-05-04 11:00 | 40.69929 | -74.16425 | 24 ft | 8 kts | 200° |
| 2026-05-04 11:01 | 40.65830 | -74.19043 | 781 ft | 216 kts | 206° |
| 2026-05-04 11:02 | 40.64414 | -74.19934 | 974 ft | 226 kts | 207° |
| 2026-05-04 11:02 | 40.63053 | -74.20787 | 1020 ft | 207 kts | 208° |
| 2026-05-04 11:05 | 40.63878 | -74.18016 | 5041 ft | 252 kts | 17° |
| 2026-05-04 11:06 | 40.65431 | -74.16921 | 5047 ft | 256 kts | 33° |
| 2026-05-04 11:06 | 40.66761 | -74.15344 | 5053 ft | 258 kts | 46° |
| 2026-05-04 11:06 | 40.68014 | -74.13630 | 5356 ft | 261 kts | 43° |
| 2026-05-04 11:06 | 40.69113 | -74.11701 | 5996 ft | 264 kts | 55° |
| 2026-05-04 11:08 | 40.77524 | -73.98399 | 10045 ft | 277 kts | 44° |
| 2026-05-04 11:10 | 40.86910 | -73.85529 | 10015 ft | 279 kts | 44° |
| 2026-05-04 11:12 | 40.96309 | -73.72505 | 9995 ft | 279 kts | 44° |
| 2026-05-04 11:12 | 40.97652 | -73.70639 | 10002 ft | 279 kts | 44° |
| 2026-05-04 11:12 | 40.98972 | -73.68803 | 9997 ft | 279 kts | 44° |
| 2026-05-04 11:12 | 41.00311 | -73.66940 | 9999 ft | 279 kts | 44° |
| 2026-05-04 11:13 | 41.01650 | -73.65076 | 9994 ft | 279 kts | 44° |
| 2026-05-04 11:13 | 41.02989 | -73.63212 | 9995 ft | 280 kts | 44° |
| 2026-05-04 11:13 | 41.04335 | -73.61336 | 9997 ft | 280 kts | 44° |
| 2026-05-04 11:13 | 41.05678 | -73.59464 | 10000 ft | 281 kts | 44° |
| 2026-05-04 11:14 | 41.07026 | -73.57584 | 9995 ft | 281 kts | 44° |
| 2026-05-04 11:14 | 41.08371 | -73.55706 | 9995 ft | 281 kts | 44° |
| 2026-05-04 11:14 | 41.09717 | -73.53825 | 9995 ft | 281 kts | 44° |
| 2026-05-04 11:16 | 41.19122 | -73.40654 | 9993 ft | 281 kts | 44° |
| 2026-05-04 11:16 | 41.20015 | -73.39399 | 10000 ft | 281 kts | 44° |
| 2026-05-04 11:16 | 41.21795 | -73.36898 | 9997 ft | 282 kts | 44° |
| 2026-05-04 11:17 | 41.23144 | -73.35002 | 9997 ft | 282 kts | 44° |
| 2026-05-04 11:17 | 41.24492 | -73.33106 | 9998 ft | 282 kts | 44° |
| 2026-05-04 11:19 | 41.33918 | -73.19824 | 10003 ft | 313 kts | 44° |
| 2026-05-04 11:19 | 41.35413 | -73.17706 | 9999 ft | 313 kts | 44° |
| 2026-05-04 11:19 | 41.36893 | -73.15563 | 10040 ft | 314 kts | 47° |
| 2026-05-04 11:19 | 41.38239 | -73.13297 | 10265 ft | 319 kts | 53° |
| 2026-05-04 11:20 | 41.39470 | -73.10818 | 10913 ft | 321 kts | 56° |
| 2026-05-04 11:20 | 41.40645 | -73.08285 | 11734 ft | 322 kts | 57° |
| 2026-05-04 11:20 | 41.41797 | -73.05715 | 12457 ft | 325 kts | 57° |
| 2026-05-04 11:20 | 41.42946 | -73.03106 | 13190 ft | 328 kts | 57° |
| 2026-05-04 11:22 | 41.51293 | -72.84090 | 17539 ft | 350 kts | 56° |
| 2026-05-04 11:22 | 41.52526 | -72.81282 | 18117 ft | 353 kts | 56° |
| 2026-05-04 11:23 | 41.53771 | -72.78445 | 18646 ft | 356 kts | 56° |
| 2026-05-04 11:23 | 41.55026 | -72.75583 | 19162 ft | 358 kts | 56° |
| 2026-05-04 11:24 | 41.62637 | -72.58152 | 19965 ft | 364 kts | 56° |
| 2026-05-04 11:25 | 41.63908 | -72.55231 | 19980 ft | 364 kts | 56° |
| 2026-05-04 11:25 | 41.65189 | -72.52311 | 19978 ft | 364 kts | 55° |
| 2026-05-04 11:25 | 41.66492 | -72.49411 | 19970 ft | 364 kts | 54° |
| 2026-05-04 11:26 | 41.69118 | -72.43626 | 19970 ft | 363 kts | 54° |
| 2026-05-04 11:27 | 41.78260 | -72.23311 | 19972 ft | 364 kts | 55° |
| 2026-05-04 11:28 | 41.79542 | -72.20443 | 19967 ft | 363 kts | 55° |
| 2026-05-04 11:28 | 41.80840 | -72.17539 | 19980 ft | 363 kts | 55° |
| 2026-05-04 11:28 | 41.82153 | -72.14596 | 20001 ft | 363 kts | 55° |
| 2026-05-04 11:28 | 41.83431 | -72.11731 | 20030 ft | 363 kts | 55° |
| 2026-05-04 11:29 | 41.84725 | -72.08826 | 20224 ft | 363 kts | 55° |
| 2026-05-04 11:29 | 41.86029 | -72.05899 | 20591 ft | 365 kts | 55° |
| 2026-05-04 11:29 | 41.87341 | -72.02952 | 21000 ft | 370 kts | 55° |
| 2026-05-04 11:29 | 41.88659 | -71.99986 | 21120 ft | 368 kts | 55° |
| 2026-05-04 11:31 | 41.97830 | -71.78729 | 24202 ft | 387 kts | 60° |
| 2026-05-04 11:33 | 42.06118 | -71.55100 | 26645 ft | 413 kts | 60° |
| 2026-05-04 11:33 | 42.07381 | -71.51583 | 26874 ft | 420 kts | 60° |
| 2026-05-04 11:33 | 42.08656 | -71.48034 | 27205 ft | 424 kts | 60° |
| 2026-05-04 11:34 | 42.09945 | -71.44436 | 27537 ft | 428 kts | 60° |
| 2026-05-04 11:34 | 42.11243 | -71.40803 | 27881 ft | 431 kts | 61° |
| 2026-05-04 11:34 | 42.12546 | -71.37150 | 28233 ft | 435 kts | 61° |
| 2026-05-04 11:34 | 42.13862 | -71.33455 | 28526 ft | 440 kts | 61° |
| 2026-05-04 11:35 | 42.15189 | -71.29724 | 28820 ft | 444 kts | 61° |
| 2026-05-04 11:35 | 42.16530 | -71.25951 | 29095 ft | 448 kts | 61° |
| 2026-05-04 11:35 | 42.17875 | -71.22159 | 29373 ft | 452 kts | 61° |
| 2026-05-04 11:35 | 42.19246 | -71.18288 | 29665 ft | 456 kts | 61° |
| 2026-05-04 11:36 | 42.20618 | -71.14409 | 29943 ft | 460 kts | 61° |
| 2026-05-04 11:36 | 42.22000 | -71.10498 | 30191 ft | 464 kts | 61° |
| 2026-05-04 11:36 | 42.23374 | -71.06601 | 30425 ft | 468 kts | 61° |
| 2026-05-04 11:36 | 42.24777 | -71.02617 | 30732 ft | 470 kts | 61° |
| 2026-05-04 11:37 | 42.26198 | -70.98575 | 31016 ft | 472 kts | 61° |
| 2026-05-04 11:37 | 42.27613 | -70.94548 | 31195 ft | 477 kts | 62° |
| 2026-05-04 11:37 | 42.29036 | -70.90490 | 31395 ft | 481 kts | 62° |
| 2026-05-04 11:37 | 42.30472 | -70.86392 | 31592 ft | 485 kts | 62° |
| 2026-05-04 11:38 | 42.31922 | -70.82249 | 31758 ft | 489 kts | 62° |
| 2026-05-04 11:38 | 42.33377 | -70.78083 | 31978 ft | 492 kts | 62° |
| 2026-05-04 11:38 | 42.34842 | -70.73880 | 32197 ft | 495 kts | 62° |
| 2026-05-04 11:38 | 42.36295 | -70.69704 | 32418 ft | 498 kts | 62° |
| 2026-05-04 11:39 | 42.37774 | -70.65447 | 32694 ft | 500 kts | 62° |
| 2026-05-04 11:39 | 42.39252 | -70.61187 | 33004 ft | 502 kts | 62° |
| 2026-05-04 11:40 | 42.48277 | -70.35042 | 34078 ft | 519 kts | 62° |
| 2026-05-04 11:41 | 42.49799 | -70.30608 | 34289 ft | 520 kts | 63° |
| 2026-05-04 11:41 | 42.51322 | -70.26161 | 34541 ft | 520 kts | 63° |
| 2026-05-04 11:41 | 42.52846 | -70.21705 | 34764 ft | 520 kts | 63° |
| 2026-05-04 11:41 | 42.54368 | -70.17250 | 34901 ft | 522 kts | 63° |
| 2026-05-04 11:42 | 42.55892 | -70.12781 | 34912 ft | 521 kts | 63° |
| 2026-05-04 11:42 | 42.58938 | -70.03826 | 34922 ft | 521 kts | 63° |
| 2026-05-04 11:43 | 42.61952 | -69.94936 | 34917 ft | 522 kts | 63° |
| 2026-05-04 11:43 | 42.64980 | -69.85979 | 34906 ft | 521 kts | 63° |
| 2026-05-04 11:44 | 42.67999 | -69.77015 | 34971 ft | 522 kts | 63° |
| 2026-05-04 11:44 | 42.69510 | -69.72522 | 35129 ft | 523 kts | 63° |
| 2026-05-04 11:44 | 42.71025 | -69.68006 | 35305 ft | 524 kts | 64° |
| 2026-05-04 11:44 | 42.72539 | -69.63488 | 35471 ft | 525 kts | 64° |
| 2026-05-04 11:45 | 42.74052 | -69.58965 | 35623 ft | 526 kts | 64° |
| 2026-05-04 11:45 | 42.75552 | -69.54472 | 35784 ft | 528 kts | 64° |
| 2026-05-04 11:45 | 42.77068 | -69.49922 | 35889 ft | 530 kts | 64° |
| 2026-05-04 11:46 | 42.80132 | -69.40709 | 35913 ft | 538 kts | 64° |
| 2026-05-04 11:46 | 42.83232 | -69.31352 | 35909 ft | 544 kts | 64° |
| 2026-05-04 11:47 | 42.86335 | -69.21952 | 35904 ft | 543 kts | 64° |
| 2026-05-04 11:47 | 42.89434 | -69.12529 | 35903 ft | 544 kts | 64° |
| 2026-05-04 11:48 | 42.92504 | -69.03165 | 35905 ft | 545 kts | 64° |
| 2026-05-04 11:48 | 42.95596 | -68.93701 | 35910 ft | 545 kts | 64° |
| 2026-05-04 11:49 | 42.98674 | -68.84246 | 35902 ft | 545 kts | 64° |
| 2026-05-04 11:49 | 43.01746 | -68.74779 | 35911 ft | 545 kts | 65° |
| 2026-05-04 11:50 | 43.04811 | -68.65297 | 35905 ft | 545 kts | 65° |
| 2026-05-04 11:50 | 43.07869 | -68.55804 | 35911 ft | 545 kts | 65° |
| 2026-05-04 11:51 | 43.10920 | -68.46298 | 35908 ft | 545 kts | 65° |
| 2026-05-04 11:51 | 43.13942 | -68.36847 | 35894 ft | 544 kts | 65° |
| 2026-05-04 11:52 | 43.16977 | -68.27326 | 35900 ft | 545 kts | 65° |
| 2026-05-04 11:52 | 43.20003 | -68.17796 | 35902 ft | 546 kts | 65° |
| 2026-05-04 11:53 | 43.23029 | -68.08232 | 35901 ft | 546 kts | 65° |
| 2026-05-04 11:53 | 43.26047 | -67.98659 | 35904 ft | 545 kts | 65° |
| 2026-05-04 11:55 | 43.38014 | -67.60351 | 35894 ft | 547 kts | 66° |
| 2026-05-04 11:56 | 43.40994 | -67.50723 | 35896 ft | 547 kts | 66° |
| 2026-05-04 11:56 | 43.43964 | -67.41091 | 35891 ft | 546 kts | 66° |
| 2026-05-04 11:57 | 43.46913 | -67.31493 | 35900 ft | 546 kts | 66° |
| 2026-05-04 11:57 | 43.49868 | -67.21842 | 35891 ft | 546 kts | 66° |
| 2026-05-04 11:58 | 43.52809 | -67.12199 | 35887 ft | 546 kts | 66° |
| 2026-05-04 11:58 | 43.55747 | -67.02546 | 35872 ft | 546 kts | 65° |
| 2026-05-04 11:59 | 43.59220 | -66.93236 | 35885 ft | 545 kts | 60° |
| 2026-05-04 11:59 | 43.62845 | -66.84130 | 35875 ft | 543 kts | 59° |
| 2026-05-04 12:00 | 43.66512 | -66.74997 | 35875 ft | 543 kts | 59° |
| 2026-05-04 12:00 | 43.70163 | -66.65856 | 35872 ft | 545 kts | 59° |
| 2026-05-04 12:01 | 43.73205 | -66.58198 | 35864 ft | 544 kts | 59° |
| 2026-05-04 12:02 | 43.85849 | -66.26111 | 35830 ft | 541 kts | 60° |
| 2026-05-04 12:03 | 43.89411 | -66.17004 | 35823 ft | 539 kts | 60° |
| 2026-05-04 12:03 | 43.92989 | -66.07829 | 35821 ft | 540 kts | 60° |
| 2026-05-04 12:04 | 43.96561 | -65.98640 | 35892 ft | 541 kts | 60° |
| 2026-05-04 12:04 | 43.98344 | -65.94041 | 36149 ft | 540 kts | 60° |
| 2026-05-04 12:04 | 44.00122 | -65.89449 | 36398 ft | 539 kts | 60° |
| 2026-05-04 12:05 | 44.01894 | -65.84863 | 36539 ft | 539 kts | 60° |
| 2026-05-04 12:05 | 44.03650 | -65.80312 | 36665 ft | 540 kts | 60° |
| 2026-05-04 12:05 | 44.05445 | -65.75653 | 36780 ft | 541 kts | 60° |
| 2026-05-04 12:05 | 44.07200 | -65.71089 | 36806 ft | 541 kts | 60° |
| 2026-05-04 12:06 | 44.10748 | -65.61841 | 36796 ft | 541 kts | 60° |
| 2026-05-04 12:06 | 44.14282 | -65.52598 | 36778 ft | 541 kts | 60° |
| 2026-05-04 12:07 | 44.17824 | -65.43307 | 36786 ft | 544 kts | 60° |
| 2026-05-04 12:07 | 44.21370 | -65.33971 | 36785 ft | 545 kts | 61° |
| 2026-05-04 12:08 | 44.24908 | -65.24625 | 36771 ft | 544 kts | 61° |
| 2026-05-04 12:08 | 44.28434 | -65.15279 | 36764 ft | 544 kts | 61° |
| 2026-05-04 12:09 | 44.31934 | -65.05971 | 36766 ft | 544 kts | 61° |
| 2026-05-04 12:09 | 44.35440 | -64.96615 | 36744 ft | 544 kts | 61° |
| 2026-05-04 12:10 | 44.38938 | -64.87249 | 36728 ft | 543 kts | 61° |
| 2026-05-04 12:10 | 44.42394 | -64.77965 | 36716 ft | 542 kts | 61° |
| 2026-05-04 12:11 | 44.45904 | -64.68505 | 36708 ft | 543 kts | 61° |
| 2026-05-04 12:11 | 44.49375 | -64.59116 | 36699 ft | 542 kts | 62° |
| 2026-05-04 12:12 | 44.52831 | -64.49737 | 36680 ft | 541 kts | 62° |
| 2026-05-04 12:12 | 44.56255 | -64.40413 | 36675 ft | 541 kts | 62° |
| 2026-05-04 12:14 | 44.69971 | -64.02739 | 36651 ft | 541 kts | 62° |
| 2026-05-04 12:15 | 44.73379 | -63.93299 | 36644 ft | 541 kts | 62° |
| 2026-05-04 12:15 | 44.76777 | -63.83852 | 36633 ft | 540 kts | 62° |
| 2026-05-04 12:16 | 44.80144 | -63.74459 | 36638 ft | 540 kts | 62° |
| 2026-05-04 12:16 | 44.83525 | -63.64995 | 36645 ft | 540 kts | 62° |
| 2026-05-04 12:17 | 44.86897 | -63.55523 | 36650 ft | 541 kts | 63° |
| 2026-05-04 12:17 | 44.90262 | -63.46037 | 36645 ft | 541 kts | 63° |
| 2026-05-04 12:18 | 44.93612 | -63.36540 | 36640 ft | 541 kts | 63° |
| 2026-05-04 12:18 | 44.96864 | -63.26958 | 36628 ft | 541 kts | 64° |
| 2026-05-04 12:19 | 45.00048 | -63.17430 | 36614 ft | 540 kts | 64° |
| 2026-05-04 12:19 | 45.03287 | -63.07755 | 36579 ft | 540 kts | 64° |
| 2026-05-04 12:20 | 45.06484 | -62.98208 | 36581 ft | 540 kts | 64° |
| 2026-05-04 12:20 | 45.09841 | -62.88663 | 36572 ft | 542 kts | 60° |
| 2026-05-04 12:21 | 45.13650 | -62.79530 | 36563 ft | 542 kts | 58° |
| 2026-05-04 12:21 | 45.17522 | -62.70372 | 36563 ft | 542 kts | 58° |
| 2026-05-04 12:22 | 45.21317 | -62.61142 | 36549 ft | 542 kts | 59° |
| 2026-05-04 12:22 | 45.25062 | -62.51870 | 36545 ft | 541 kts | 59° |
| 2026-05-04 12:23 | 45.28784 | -62.42597 | 36546 ft | 540 kts | 60° |
| 2026-05-04 12:23 | 45.32499 | -62.33316 | 36524 ft | 540 kts | 60° |
| 2026-05-04 12:24 | 45.36207 | -62.24032 | 36507 ft | 540 kts | 60° |
| 2026-05-04 12:24 | 45.39913 | -62.14724 | 36489 ft | 542 kts | 60° |
| 2026-05-04 12:25 | 45.43626 | -62.05367 | 36490 ft | 542 kts | 60° |
| 2026-05-04 12:25 | 45.47296 | -61.95978 | 36489 ft | 542 kts | 62° |
| 2026-05-04 12:26 | 45.50772 | -61.86429 | 36480 ft | 542 kts | 63° |
| 2026-05-04 12:26 | 45.54201 | -61.76866 | 36456 ft | 541 kts | 63° |
| 2026-05-04 12:27 | 45.57622 | -61.67388 | 36430 ft | 541 kts | 62° |
| 2026-05-04 12:27 | 45.61079 | -61.57840 | 36430 ft | 541 kts | 62° |
| 2026-05-04 12:28 | 45.64534 | -61.48279 | 36430 ft | 542 kts | 63° |
| 2026-05-04 12:28 | 45.67997 | -61.38658 | 36430 ft | 543 kts | 63° |
| 2026-05-04 12:29 | 45.71428 | -61.29086 | 36368 ft | 544 kts | 63° |
| 2026-05-04 12:29 | 45.74876 | -61.19434 | 36366 ft | 543 kts | 63° |
| 2026-05-04 12:30 | 45.78311 | -61.09785 | 36355 ft | 545 kts | 63° |
| 2026-05-04 12:30 | 45.81750 | -61.00086 | 36334 ft | 545 kts | 63° |
| 2026-05-04 12:31 | 45.85181 | -60.90376 | 36333 ft | 546 kts | 63° |
| 2026-05-04 12:31 | 45.88586 | -60.80705 | 36322 ft | 546 kts | 63° |
| 2026-05-04 12:32 | 45.93712 | -60.66079 | 36296 ft | 546 kts | 64° |
| 2026-05-04 12:33 | 45.97117 | -60.56319 | 36278 ft | 547 kts | 64° |
| 2026-05-04 12:33 | 46.00518 | -60.46535 | 36271 ft | 547 kts | 64° |
| 2026-05-04 12:34 | 46.03913 | -60.36733 | 36252 ft | 546 kts | 64° |
| 2026-05-04 12:34 | 46.07290 | -60.26946 | 36240 ft | 545 kts | 64° |
| 2026-05-04 12:35 | 46.10656 | -60.17154 | 36235 ft | 545 kts | 64° |
| 2026-05-04 12:35 | 46.13988 | -60.07426 | 36248 ft | 544 kts | 64° |
| 2026-05-04 12:36 | 46.17317 | -59.97672 | 36188 ft | 541 kts | 65° |
| 2026-05-04 12:36 | 46.20647 | -59.87871 | 36185 ft | 546 kts | 65° |
| 2026-05-04 12:37 | 46.23988 | -59.78008 | 36188 ft | 546 kts | 65° |
| 2026-05-04 12:37 | 46.27324 | -59.68124 | 36193 ft | 546 kts | 65° |
| 2026-05-04 12:38 | 46.30622 | -59.58313 | 36173 ft | 544 kts | 65° |
| 2026-05-04 12:38 | 46.33920 | -59.48467 | 36182 ft | 544 kts | 65° |
| 2026-05-04 12:39 | 46.37215 | -59.38589 | 36187 ft | 544 kts | 65° |
| 2026-05-04 12:39 | 46.40490 | -59.28736 | 36179 ft | 543 kts | 65° |
| 2026-05-04 12:40 | 46.43769 | -59.18837 | 36176 ft | 544 kts | 66° |
| 2026-05-04 12:40 | 46.47039 | -59.08918 | 36175 ft | 546 kts | 66° |
| 2026-05-04 12:41 | 46.50288 | -58.99029 | 36179 ft | 546 kts | 66° |
| 2026-05-04 12:41 | 46.53546 | -58.89082 | 36176 ft | 544 kts | 66° |
| 2026-05-04 12:42 | 46.56790 | -58.79128 | 36166 ft | 545 kts | 66° |
| 2026-05-04 12:42 | 46.60026 | -58.69166 | 36155 ft | 545 kts | 67° |
| 2026-05-04 12:43 | 46.63258 | -58.59180 | 36160 ft | 546 kts | 66° |
| 2026-05-04 12:43 | 46.66467 | -58.49223 | 36147 ft | 545 kts | 67° |
| 2026-05-04 12:44 | 46.69684 | -58.39208 | 36158 ft | 547 kts | 67° |
| 2026-05-04 12:44 | 46.72896 | -58.29163 | 36157 ft | 546 kts | 67° |
| 2026-05-04 12:45 | 46.76102 | -58.19101 | 36145 ft | 546 kts | 67° |
| 2026-05-04 12:45 | 46.79296 | -58.09040 | 36163 ft | 545 kts | 67° |
| 2026-05-04 12:46 | 46.82454 | -57.99047 | 36154 ft | 546 kts | 68° |
| 2026-05-04 12:46 | 46.85626 | -57.88968 | 36152 ft | 546 kts | 67° |
| 2026-05-04 12:47 | 46.88776 | -57.78923 | 36165 ft | 543 kts | 68° |
| 2026-05-04 12:47 | 46.91383 | -57.70570 | 36157 ft | 541 kts | 68° |
| 2026-05-04 12:48 | 46.94501 | -57.60554 | 36162 ft | 542 kts | 68° |
| 2026-05-04 12:48 | 46.97618 | -57.50499 | 36181 ft | 543 kts | 68° |
| 2026-05-04 12:49 | 47.00735 | -57.40409 | 36185 ft | 542 kts | 69° |
| 2026-05-04 12:49 | 47.03816 | -57.30395 | 36181 ft | 541 kts | 69° |
| 2026-05-04 12:50 | 47.06901 | -57.20321 | 36178 ft | 540 kts | 69° |
| 2026-05-04 12:50 | 47.09976 | -57.10243 | 36207 ft | 541 kts | 69° |
| 2026-05-04 12:51 | 47.13037 | -57.00174 | 36200 ft | 538 kts | 69° |
| 2026-05-04 12:51 | 47.16062 | -56.90183 | 36202 ft | 537 kts | 69° |
| 2026-05-04 12:52 | 47.19091 | -56.80131 | 36211 ft | 538 kts | 69° |
| 2026-05-04 12:52 | 47.22119 | -56.70046 | 36210 ft | 538 kts | 69° |
| 2026-05-04 12:53 | 47.25118 | -56.60020 | 36201 ft | 536 kts | 69° |
| 2026-05-04 12:53 | 47.28114 | -56.49962 | 36205 ft | 535 kts | 70° |
| 2026-05-04 12:54 | 47.31091 | -56.39921 | 36201 ft | 535 kts | 70° |
| 2026-05-04 12:54 | 47.34067 | -56.29845 | 36186 ft | 535 kts | 70° |
| 2026-05-04 12:55 | 47.37027 | -56.19789 | 36200 ft | 533 kts | 70° |
| 2026-05-04 12:55 | 47.39968 | -56.09749 | 36200 ft | 532 kts | 70° |
| 2026-05-04 12:56 | 47.42898 | -55.99707 | 36187 ft | 533 kts | 70° |
| 2026-05-04 12:56 | 47.45815 | -55.89663 | 36169 ft | 535 kts | 70° |
| 2026-05-04 12:57 | 47.48735 | -55.79578 | 36209 ft | 533 kts | 70° |
| 2026-05-04 12:57 | 47.51638 | -55.69505 | 36232 ft | 532 kts | 71° |
| 2026-05-04 12:58 | 47.54532 | -55.59421 | 36231 ft | 532 kts | 71° |
| 2026-05-04 12:58 | 47.57414 | -55.49338 | 36273 ft | 532 kts | 71° |
| 2026-05-04 12:59 | 47.60284 | -55.39256 | 36292 ft | 530 kts | 71° |
| 2026-05-04 12:59 | 47.63139 | -55.29183 | 36292 ft | 530 kts | 71° |
| 2026-05-04 13:00 | 47.65984 | -55.19101 | 36320 ft | 529 kts | 71° |
| 2026-05-04 13:00 | 47.68827 | -55.08983 | 36346 ft | 533 kts | 71° |
| 2026-05-04 13:01 | 47.71655 | -54.98883 | 36359 ft | 532 kts | 72° |
| 2026-05-04 13:01 | 47.74484 | -54.88733 | 36370 ft | 532 kts | 72° |
| 2026-05-04 13:02 | 47.77308 | -54.78557 | 36395 ft | 532 kts | 72° |
| 2026-05-04 13:02 | 47.80120 | -54.68383 | 36397 ft | 532 kts | 72° |
| 2026-05-04 13:03 | 47.82922 | -54.58197 | 36405 ft | 532 kts | 72° |
| 2026-05-04 13:03 | 47.85718 | -54.47991 | 36418 ft | 532 kts | 72° |
| 2026-05-04 13:04 | 47.88500 | -54.37793 | 36420 ft | 532 kts | 72° |
| 2026-05-04 13:04 | 47.91267 | -54.27605 | 36403 ft | 533 kts | 72° |
| 2026-05-04 13:05 | 47.94048 | -54.17322 | 36435 ft | 534 kts | 73° |
| 2026-05-04 13:05 | 47.96820 | -54.07030 | 36440 ft | 534 kts | 73° |
| 2026-05-04 13:06 | 47.99581 | -53.96731 | 36440 ft | 534 kts | 73° |
| 2026-05-04 13:06 | 48.02334 | -53.86415 | 36419 ft | 534 kts | 73° |
| 2026-05-04 13:07 | 48.05058 | -53.76169 | 36454 ft | 533 kts | 73° |
| 2026-05-04 13:07 | 48.07783 | -53.65871 | 36454 ft | 533 kts | 73° |
| 2026-05-04 13:08 | 48.10502 | -53.55545 | 36457 ft | 533 kts | 73° |
| 2026-05-04 13:08 | 48.13210 | -53.45217 | 36455 ft | 533 kts | 74° |
| 2026-05-04 13:09 | 48.15910 | -53.34874 | 36480 ft | 533 kts | 74° |
| 2026-05-04 13:09 | 48.18597 | -53.24536 | 36485 ft | 532 kts | 74° |
| 2026-05-04 13:10 | 48.21274 | -53.14186 | 36485 ft | 532 kts | 74° |
| 2026-05-04 13:10 | 48.23941 | -53.03830 | 36489 ft | 532 kts | 75° |
| 2026-05-04 13:11 | 48.26596 | -52.93480 | 36500 ft | 530 kts | 75° |
| 2026-05-04 13:11 | 48.29234 | -52.83144 | 36500 ft | 530 kts | 75° |
| 2026-05-04 13:12 | 48.31857 | -52.72813 | 36519 ft | 529 kts | 75° |
| 2026-05-04 13:12 | 48.34474 | -52.62464 | 36521 ft | 529 kts | 75° |
| 2026-05-04 13:13 | 48.37081 | -52.52116 | 36521 ft | 527 kts | 76° |
| 2026-05-04 13:13 | 48.39665 | -52.41804 | 36545 ft | 526 kts | 76° |
| 2026-05-04 13:14 | 48.42219 | -52.31559 | 36540 ft | 526 kts | 76° |
| 2026-05-04 13:14 | 48.44779 | -52.21246 | 36548 ft | 526 kts | 76° |
| 2026-05-04 13:15 | 48.47335 | -52.10907 | 36544 ft | 525 kts | 76° |
| 2026-05-04 13:15 | 48.49873 | -52.00593 | 36564 ft | 524 kts | 76° |
| 2026-05-04 13:16 | 48.52460 | -51.90366 | 36575 ft | 525 kts | 75° |
| 2026-05-04 13:16 | 48.55159 | -51.80097 | 36570 ft | 525 kts | 75° |
| 2026-05-04 13:17 | 48.57840 | -51.69836 | 36551 ft | 524 kts | 76° |
| 2026-05-04 13:17 | 48.60489 | -51.59561 | 36587 ft | 525 kts | 76° |
| 2026-05-04 13:18 | 48.63125 | -51.49257 | 36593 ft | 526 kts | 76° |
| 2026-05-04 13:18 | 48.65756 | -51.38929 | 36597 ft | 526 kts | 76° |
| 2026-05-04 13:19 | 48.68363 | -51.28655 | 36618 ft | 526 kts | 76° |
| 2026-05-04 13:19 | 48.70974 | -51.18329 | 36617 ft | 525 kts | 77° |
| 2026-05-04 13:20 | 48.73573 | -51.07995 | 36614 ft | 524 kts | 77° |
| 2026-05-04 13:20 | 48.76160 | -50.97655 | 36615 ft | 524 kts | 77° |
| 2026-05-04 13:21 | 48.78737 | -50.87313 | 36624 ft | 524 kts | 77° |
| 2026-05-04 13:21 | 48.81293 | -50.77009 | 36581 ft | 523 kts | 78° |
| 2026-05-04 13:22 | 48.83843 | -50.66667 | 36639 ft | 523 kts | 77° |
| 2026-05-04 13:22 | 48.86385 | -50.56318 | 36652 ft | 523 kts | 78° |
| 2026-05-04 13:23 | 48.88919 | -50.45959 | 36652 ft | 522 kts | 78° |
| 2026-05-04 13:23 | 48.91444 | -50.35588 | 36656 ft | 522 kts | 78° |
| 2026-05-04 13:24 | 48.93944 | -50.25268 | 36654 ft | 522 kts | 78° |
| 2026-05-04 13:24 | 48.96446 | -50.14891 | 36666 ft | 522 kts | 78° |
| 2026-05-04 13:25 | 49.00182 | -49.99314 | 36664 ft | 521 kts | 78° |
| 2026-05-04 13:25 | 49.02747 | -49.88970 | 36669 ft | 521 kts | 77° |
| 2026-05-04 13:26 | 49.05350 | -49.78712 | 36621 ft | 521 kts | 77° |
| 2026-05-04 13:26 | 49.07935 | -49.68404 | 36700 ft | 519 kts | 78° |
| 2026-05-04 13:27 | 49.10423 | -49.58072 | 36691 ft | 518 kts | 79° |
| 2026-05-04 13:27 | 49.12766 | -49.47696 | 36748 ft | 515 kts | 81° |
| 2026-05-04 13:28 | 49.14559 | -49.39044 | 36773 ft | 514 kts | 82° |